MPH467 OMDB-EDDP
Flight info
| Callsign | MPH467 |
|---|---|
| Flight time | 5h 57m |
| Altitude | 30000 |
| Route | RIDAP M557 TUMAK L602 TASMI/N0488F320 L602 GADSI M860 NINVA UM860 ODALI UL852 NEGEM DCT MAXOV/N0471F340 DCT OSTAL DCT PATAK DCT LALES DCT BEFRE DCT IVQOQ/N0459F300 T951 YAWOY YAWOY1R |
| Aircraft | MD11/H-SDE1E2E3FGHIJ2J3J4J5M1RWXY/LB1D1 |
Departure
| Time | 2026-05-07 18:15 |
|---|---|
| Airport | Dubai International Airport (OMDB) |
Arrival
| Time | 2026-05-08 00:13 |
|---|---|
| Airport | Leipzig/Halle Airport (EDDP) |
| Time | Latitude | Longitude | Altitude | Speed | Heading |
|---|---|---|---|---|---|
| 2026-05-07 17:57 | 25.26310 | 55.36017 | 30 ft | 0 kts | 30° |
| 2026-05-07 18:06 | 25.26298 | 55.36009 | 29 ft | 4 kts | 26° |
| 2026-05-07 18:06 | 25.26274 | 55.35999 | 20 ft | 4 kts | 9° |
| 2026-05-07 18:07 | 25.26249 | 55.35997 | 35 ft | 4 kts | 343° |
| 2026-05-07 18:07 | 25.26228 | 55.36008 | 27 ft | 4 kts | 309° |
| 2026-05-07 18:07 | 25.26222 | 55.36016 | 27 ft | 0 kts | 302° |
| 2026-05-07 18:09 | 25.26223 | 55.36014 | 30 ft | 2 kts | 302° |
| 2026-05-07 18:09 | 25.26239 | 55.35949 | 30 ft | 15 kts | 259° |
| 2026-05-07 18:09 | 25.26127 | 55.35873 | 30 ft | 26 kts | 172° |
| 2026-05-07 18:10 | 25.26007 | 55.35951 | 30 ft | 16 kts | 136° |
| 2026-05-07 18:10 | 25.25982 | 55.36068 | 30 ft | 19 kts | 83° |
| 2026-05-07 18:10 | 25.25987 | 55.36258 | 30 ft | 25 kts | 112° |
| 2026-05-07 18:10 | 25.25886 | 55.36449 | 27 ft | 36 kts | 120° |
| 2026-05-07 18:11 | 25.25740 | 55.36714 | 29 ft | 37 kts | 123° |
| 2026-05-07 18:11 | 25.25654 | 55.36863 | 29 ft | 33 kts | 122° |
| 2026-05-07 18:11 | 25.25505 | 55.37130 | 29 ft | 29 kts | 121° |
| 2026-05-07 18:11 | 25.25408 | 55.37307 | 29 ft | 25 kts | 122° |
| 2026-05-07 18:12 | 25.25320 | 55.37463 | 29 ft | 23 kts | 121° |
| 2026-05-07 18:12 | 25.25242 | 55.37604 | 29 ft | 20 kts | 121° |
| 2026-05-07 18:12 | 25.25174 | 55.37729 | 29 ft | 18 kts | 121° |
| 2026-05-07 18:12 | 25.25114 | 55.37838 | 29 ft | 16 kts | 121° |
| 2026-05-07 18:13 | 25.25062 | 55.37933 | 28 ft | 14 kts | 121° |
| 2026-05-07 18:13 | 25.25016 | 55.38016 | 29 ft | 12 kts | 121° |
| 2026-05-07 18:13 | 25.24975 | 55.38092 | 29 ft | 11 kts | 121° |
| 2026-05-07 18:13 | 25.24937 | 55.38160 | 29 ft | 10 kts | 121° |
| 2026-05-07 18:14 | 25.24889 | 55.38196 | 29 ft | 8 kts | 167° |
| 2026-05-07 18:14 | 25.24852 | 55.38185 | 29 ft | 5 kts | 204° |
| 2026-05-07 18:14 | 25.24799 | 55.38142 | 28 ft | 18 kts | 235° |
| 2026-05-07 18:14 | 25.24841 | 55.37948 | 29 ft | 41 kts | 303° |
| 2026-05-07 18:15 | 25.25128 | 55.37439 | 29 ft | 114 kts | 302° |
| 2026-05-07 18:15 | 25.25659 | 55.36493 | 30 ft | 174 kts | 302° |
| 2026-05-07 18:15 | 25.26353 | 55.35227 | 209 ft | 199 kts | 302° |
| 2026-05-07 18:15 | 25.27063 | 55.33931 | 912 ft | 194 kts | 301° |
| 2026-05-07 18:16 | 25.27753 | 55.32673 | 1718 ft | 188 kts | 300° |
| 2026-05-07 18:16 | 25.28427 | 55.31426 | 2407 ft | 192 kts | 298° |
| 2026-05-07 18:16 | 25.29107 | 55.30127 | 3027 ft | 198 kts | 297° |
| 2026-05-07 18:16 | 25.29784 | 55.28772 | 3643 ft | 207 kts | 297° |
| 2026-05-07 18:17 | 25.30512 | 55.27329 | 4138 ft | 227 kts | 302° |
| 2026-05-07 18:17 | 25.31501 | 55.25823 | 4311 ft | 255 kts | 306° |
| 2026-05-07 18:17 | 25.32603 | 55.24236 | 4669 ft | 266 kts | 306° |
| 2026-05-07 18:17 | 25.33721 | 55.22595 | 5227 ft | 269 kts | 306° |
| 2026-05-07 18:18 | 25.34833 | 55.20920 | 5805 ft | 271 kts | 304° |
| 2026-05-07 18:18 | 25.35638 | 55.19015 | 6161 ft | 284 kts | 282° |
| 2026-05-07 18:18 | 25.35826 | 55.16780 | 6353 ft | 302 kts | 270° |
| 2026-05-07 18:18 | 25.35771 | 55.14439 | 6937 ft | 306 kts | 268° |
| 2026-05-07 18:19 | 25.35670 | 55.12079 | 7596 ft | 309 kts | 267° |
| 2026-05-07 18:19 | 25.35564 | 55.09696 | 8270 ft | 311 kts | 268° |
| 2026-05-07 18:19 | 25.35463 | 55.07298 | 8940 ft | 314 kts | 268° |
| 2026-05-07 18:19 | 25.35365 | 55.04874 | 9623 ft | 317 kts | 268° |
| 2026-05-07 18:20 | 25.35271 | 55.02413 | 10019 ft | 330 kts | 268° |
| 2026-05-07 18:20 | 25.35174 | 54.99805 | 10143 ft | 349 kts | 268° |
| 2026-05-07 18:20 | 25.35074 | 54.97083 | 10311 ft | 366 kts | 268° |
| 2026-05-07 18:20 | 25.34970 | 54.94265 | 10875 ft | 370 kts | 267° |
| 2026-05-07 18:21 | 25.34953 | 54.91408 | 11411 ft | 374 kts | 275° |
| 2026-05-07 18:21 | 25.35417 | 54.88578 | 11990 ft | 378 kts | 283° |
| 2026-05-07 18:21 | 25.36149 | 54.85766 | 12546 ft | 382 kts | 287° |
| 2026-05-07 18:21 | 25.36975 | 54.82949 | 13132 ft | 386 kts | 288° |
| 2026-05-07 18:22 | 25.37823 | 54.80126 | 13709 ft | 389 kts | 288° |
| 2026-05-07 18:22 | 25.38386 | 54.78238 | 14058 ft | 390 kts | 288° |
| 2026-05-07 18:22 | 25.39513 | 54.74399 | 14735 ft | 395 kts | 287° |
| 2026-05-07 18:22 | 25.40355 | 54.71484 | 15211 ft | 399 kts | 287° |
| 2026-05-07 18:23 | 25.41197 | 54.68547 | 15717 ft | 403 kts | 286° |
| 2026-05-07 18:23 | 25.42042 | 54.65585 | 16206 ft | 406 kts | 286° |
| 2026-05-07 18:23 | 25.42900 | 54.62577 | 16666 ft | 409 kts | 287° |
| 2026-05-07 18:23 | 25.43774 | 54.59574 | 17131 ft | 414 kts | 287° |
| 2026-05-07 18:24 | 25.44668 | 54.56541 | 17647 ft | 416 kts | 287° |
| 2026-05-07 18:24 | 25.45561 | 54.53526 | 18146 ft | 418 kts | 287° |
| 2026-05-07 18:24 | 25.46474 | 54.50449 | 18506 ft | 423 kts | 287° |
| 2026-05-07 18:24 | 25.47372 | 54.47419 | 18983 ft | 423 kts | 286° |
| 2026-05-07 18:25 | 25.48291 | 54.44311 | 19383 ft | 426 kts | 286° |
| 2026-05-07 18:25 | 25.49211 | 54.41198 | 19881 ft | 426 kts | 287° |
| 2026-05-07 18:25 | 25.50135 | 54.38070 | 20315 ft | 427 kts | 286° |
| 2026-05-07 18:25 | 25.51057 | 54.34941 | 20781 ft | 428 kts | 287° |
| 2026-05-07 18:26 | 25.51983 | 54.31797 | 21222 ft | 430 kts | 287° |
| 2026-05-07 18:26 | 25.52909 | 54.28650 | 21658 ft | 431 kts | 286° |
| 2026-05-07 18:26 | 25.53528 | 54.26544 | 21925 ft | 433 kts | 286° |
| 2026-05-07 18:26 | 25.54458 | 54.23374 | 22375 ft | 434 kts | 285° |
| 2026-05-07 18:27 | 25.55392 | 54.20180 | 22775 ft | 437 kts | 286° |
| 2026-05-07 18:27 | 25.56636 | 54.15931 | 23300 ft | 439 kts | 286° |
| 2026-05-07 18:27 | 25.57582 | 54.12697 | 23597 ft | 442 kts | 287° |
| 2026-05-07 18:27 | 25.58223 | 54.10512 | 23871 ft | 442 kts | 286° |
| 2026-05-07 18:28 | 25.59171 | 54.07268 | 24264 ft | 443 kts | 286° |
| 2026-05-07 18:28 | 25.60096 | 54.04058 | 24625 ft | 443 kts | 285° |
| 2026-05-07 18:28 | 25.61032 | 54.00785 | 24960 ft | 445 kts | 285° |
| 2026-05-07 18:28 | 25.61966 | 53.97506 | 25304 ft | 446 kts | 285° |
| 2026-05-07 18:29 | 25.62899 | 53.94229 | 25668 ft | 447 kts | 285° |
| 2026-05-07 18:29 | 25.63834 | 53.90942 | 26052 ft | 447 kts | 285° |
| 2026-05-07 18:29 | 25.64771 | 53.87650 | 26399 ft | 448 kts | 285° |
| 2026-05-07 18:29 | 25.65708 | 53.84358 | 26740 ft | 449 kts | 285° |
| 2026-05-07 18:30 | 25.66646 | 53.81058 | 27070 ft | 450 kts | 285° |
| 2026-05-07 18:30 | 25.67587 | 53.77743 | 27403 ft | 451 kts | 285° |
| 2026-05-07 18:30 | 25.68529 | 53.74423 | 27726 ft | 452 kts | 285° |
| 2026-05-07 18:30 | 25.69468 | 53.71095 | 28027 ft | 453 kts | 284° |
| 2026-05-07 18:31 | 25.70408 | 53.67745 | 28330 ft | 454 kts | 284° |
| 2026-05-07 18:31 | 25.71346 | 53.64405 | 28638 ft | 455 kts | 284° |
| 2026-05-07 18:31 | 25.72278 | 53.61084 | 28930 ft | 456 kts | 284° |
| 2026-05-07 18:31 | 25.73222 | 53.57720 | 29223 ft | 457 kts | 284° |
| 2026-05-07 18:32 | 25.74170 | 53.54342 | 29534 ft | 458 kts | 284° |
| 2026-05-07 18:32 | 25.75114 | 53.50972 | 29937 ft | 457 kts | 284° |
| 2026-05-07 18:32 | 25.76051 | 53.47619 | 30333 ft | 454 kts | 284° |
| 2026-05-07 18:32 | 25.76985 | 53.44276 | 30702 ft | 452 kts | 284° |
| 2026-05-07 18:33 | 25.77913 | 53.40948 | 31053 ft | 451 kts | 284° |
| 2026-05-07 18:33 | 25.78836 | 53.37640 | 31406 ft | 448 kts | 284° |
| 2026-05-07 18:33 | 25.79755 | 53.34341 | 31721 ft | 448 kts | 284° |
| 2026-05-07 18:34 | 25.81606 | 53.27681 | 31824 ft | 453 kts | 284° |
| 2026-05-07 18:34 | 25.83477 | 53.20987 | 31833 ft | 454 kts | 285° |
| 2026-05-07 18:35 | 25.85832 | 53.14459 | 31849 ft | 457 kts | 290° |
| 2026-05-07 18:35 | 25.88475 | 53.08040 | 31849 ft | 457 kts | 291° |
| 2026-05-07 18:36 | 25.91105 | 53.01661 | 31837 ft | 457 kts | 290° |
| 2026-05-07 18:36 | 25.93722 | 52.95225 | 31837 ft | 458 kts | 290° |
| 2026-05-07 18:37 | 25.96333 | 52.88755 | 31835 ft | 458 kts | 290° |
| 2026-05-07 18:37 | 25.98936 | 52.82294 | 31838 ft | 458 kts | 290° |
| 2026-05-07 18:38 | 26.01543 | 52.75830 | 31843 ft | 458 kts | 291° |
| 2026-05-07 18:38 | 26.04323 | 52.69434 | 31840 ft | 459 kts | 292° |
| 2026-05-07 18:39 | 26.07189 | 52.63102 | 31835 ft | 458 kts | 292° |
| 2026-05-07 18:39 | 26.10053 | 52.56772 | 31839 ft | 458 kts | 292° |
| 2026-05-07 18:40 | 26.12889 | 52.50479 | 31835 ft | 458 kts | 292° |
| 2026-05-07 18:40 | 26.15731 | 52.44172 | 31838 ft | 459 kts | 292° |
| 2026-05-07 18:41 | 26.18596 | 52.37813 | 31846 ft | 458 kts | 292° |
| 2026-05-07 18:41 | 26.21447 | 52.31470 | 31838 ft | 457 kts | 292° |
| 2026-05-07 18:42 | 26.24233 | 52.25106 | 31837 ft | 457 kts | 291° |
| 2026-05-07 18:42 | 26.26994 | 52.18713 | 31836 ft | 458 kts | 291° |
| 2026-05-07 18:43 | 26.29735 | 52.12363 | 31840 ft | 458 kts | 291° |
| 2026-05-07 18:43 | 26.32493 | 52.05971 | 31843 ft | 457 kts | 291° |
| 2026-05-07 18:44 | 26.35237 | 51.99583 | 31842 ft | 456 kts | 291° |
| 2026-05-07 18:44 | 26.37913 | 51.93160 | 31839 ft | 455 kts | 288° |
| 2026-05-07 18:45 | 26.40191 | 51.86596 | 31843 ft | 453 kts | 286° |
| 2026-05-07 18:45 | 26.42361 | 51.79992 | 31842 ft | 454 kts | 286° |
| 2026-05-07 18:46 | 26.44551 | 51.73386 | 31862 ft | 454 kts | 286° |
| 2026-05-07 18:46 | 26.46752 | 51.66800 | 31847 ft | 452 kts | 286° |
| 2026-05-07 18:47 | 26.48944 | 51.60229 | 31852 ft | 452 kts | 286° |
| 2026-05-07 18:47 | 26.51125 | 51.53680 | 31849 ft | 453 kts | 286° |
| 2026-05-07 18:48 | 26.53322 | 51.47073 | 31858 ft | 454 kts | 286° |
| 2026-05-07 18:48 | 26.55516 | 51.40468 | 31853 ft | 454 kts | 286° |
| 2026-05-07 18:49 | 26.57710 | 51.33851 | 31855 ft | 453 kts | 286° |
| 2026-05-07 18:49 | 26.59893 | 51.27248 | 31855 ft | 453 kts | 285° |
| 2026-05-07 18:50 | 26.62080 | 51.20630 | 31849 ft | 454 kts | 285° |
| 2026-05-07 18:50 | 26.64254 | 51.14059 | 31854 ft | 454 kts | 285° |
| 2026-05-07 18:51 | 26.66442 | 51.07437 | 31859 ft | 454 kts | 285° |
| 2026-05-07 18:51 | 26.68615 | 51.00825 | 31878 ft | 453 kts | 285° |
| 2026-05-07 18:52 | 26.70740 | 50.94187 | 31863 ft | 452 kts | 285° |
| 2026-05-07 18:52 | 26.72844 | 50.87561 | 31874 ft | 452 kts | 285° |
| 2026-05-07 18:53 | 26.74949 | 50.80929 | 31877 ft | 453 kts | 285° |
| 2026-05-07 18:53 | 26.77064 | 50.74265 | 31876 ft | 453 kts | 285° |
| 2026-05-07 18:54 | 26.79188 | 50.67623 | 31888 ft | 454 kts | 287° |
| 2026-05-07 18:54 | 26.82419 | 50.61457 | 31880 ft | 466 kts | 302° |
| 2026-05-07 18:55 | 26.86549 | 50.55884 | 31883 ft | 470 kts | 304° |
| 2026-05-07 18:55 | 26.90787 | 50.50317 | 31883 ft | 470 kts | 305° |
| 2026-05-07 18:56 | 26.95200 | 50.44946 | 31883 ft | 472 kts | 307° |
| 2026-05-07 18:56 | 26.99718 | 50.39607 | 31889 ft | 472 kts | 307° |
| 2026-05-07 18:57 | 27.04221 | 50.34255 | 31885 ft | 471 kts | 307° |
| 2026-05-07 18:57 | 27.08682 | 50.28869 | 31889 ft | 471 kts | 306° |
| 2026-05-07 18:58 | 27.13126 | 50.23466 | 31891 ft | 471 kts | 306° |
| 2026-05-07 18:58 | 27.17886 | 50.18374 | 31898 ft | 477 kts | 315° |
| 2026-05-07 18:59 | 27.23237 | 50.13907 | 31898 ft | 480 kts | 317° |
| 2026-05-07 18:59 | 27.28668 | 50.09536 | 31897 ft | 480 kts | 317° |
| 2026-05-07 19:00 | 27.34058 | 50.05115 | 31898 ft | 479 kts | 317° |
| 2026-05-07 19:00 | 27.39361 | 50.00583 | 31900 ft | 478 kts | 315° |
| 2026-05-07 19:01 | 27.44555 | 49.96003 | 31904 ft | 478 kts | 315° |
| 2026-05-07 19:01 | 27.49789 | 49.91378 | 31921 ft | 478 kts | 315° |
| 2026-05-07 19:02 | 27.55019 | 49.86768 | 31907 ft | 476 kts | 315° |
| 2026-05-07 19:02 | 27.60230 | 49.82173 | 31903 ft | 476 kts | 315° |
| 2026-05-07 19:03 | 27.65444 | 49.77570 | 31903 ft | 476 kts | 315° |
| 2026-05-07 19:03 | 27.70660 | 49.72959 | 31904 ft | 477 kts | 315° |
| 2026-05-07 19:04 | 27.75890 | 49.68329 | 31901 ft | 478 kts | 315° |
| 2026-05-07 19:04 | 27.81110 | 49.63682 | 31903 ft | 478 kts | 315° |
| 2026-05-07 19:05 | 27.86329 | 49.59016 | 31909 ft | 478 kts | 315° |
| 2026-05-07 19:05 | 27.91538 | 49.54359 | 31906 ft | 477 kts | 315° |
| 2026-05-07 19:06 | 27.96718 | 49.49725 | 31908 ft | 478 kts | 315° |
| 2026-05-07 19:06 | 28.04555 | 49.42680 | 31905 ft | 478 kts | 314° |
| 2026-05-07 19:07 | 28.09732 | 49.37960 | 31902 ft | 478 kts | 314° |
| 2026-05-07 19:07 | 28.14906 | 49.33231 | 31902 ft | 478 kts | 314° |
| 2026-05-07 19:08 | 28.20091 | 49.28491 | 31910 ft | 478 kts | 314° |
| 2026-05-07 19:08 | 28.25258 | 49.23763 | 31906 ft | 478 kts | 314° |
| 2026-05-07 19:09 | 28.30419 | 49.19016 | 31906 ft | 478 kts | 314° |
| 2026-05-07 19:09 | 28.35555 | 49.14276 | 31913 ft | 477 kts | 314° |
| 2026-05-07 19:10 | 28.40837 | 49.09727 | 31909 ft | 479 kts | 318° |
| 2026-05-07 19:10 | 28.46370 | 49.05467 | 31906 ft | 482 kts | 319° |
| 2026-05-07 19:11 | 28.51920 | 49.01251 | 31905 ft | 483 kts | 319° |
| 2026-05-07 19:11 | 28.57475 | 48.96993 | 31909 ft | 481 kts | 319° |
| 2026-05-07 19:12 | 28.63014 | 48.92718 | 31913 ft | 480 kts | 319° |
| 2026-05-07 19:12 | 28.68544 | 48.88438 | 31910 ft | 480 kts | 319° |
| 2026-05-07 19:13 | 28.74075 | 48.84154 | 31902 ft | 480 kts | 319° |
| 2026-05-07 19:13 | 28.79603 | 48.79868 | 31902 ft | 480 kts | 319° |
| 2026-05-07 19:14 | 28.85109 | 48.75612 | 31902 ft | 481 kts | 319° |
| 2026-05-07 19:14 | 28.90657 | 48.71338 | 31898 ft | 481 kts | 318° |
| 2026-05-07 19:15 | 28.96204 | 48.67062 | 31893 ft | 481 kts | 318° |
| 2026-05-07 19:15 | 29.01762 | 48.62773 | 31893 ft | 482 kts | 318° |
| 2026-05-07 19:16 | 29.06380 | 48.59203 | 31887 ft | 483 kts | 318° |
| 2026-05-07 19:16 | 29.11946 | 48.54897 | 31887 ft | 482 kts | 318° |
| 2026-05-07 19:17 | 29.17508 | 48.50588 | 31889 ft | 482 kts | 318° |
| 2026-05-07 19:17 | 29.23062 | 48.46279 | 31893 ft | 483 kts | 318° |
| 2026-05-07 19:18 | 29.28625 | 48.41956 | 31895 ft | 484 kts | 318° |
| 2026-05-07 19:18 | 29.34206 | 48.37614 | 31890 ft | 484 kts | 318° |
| 2026-05-07 19:19 | 29.39770 | 48.33319 | 31896 ft | 486 kts | 320° |
| 2026-05-07 19:19 | 29.45629 | 48.29270 | 31892 ft | 490 kts | 322° |
| 2026-05-07 19:20 | 29.51513 | 48.25409 | 31889 ft | 490 kts | 323° |
| 2026-05-07 19:20 | 29.57430 | 48.21514 | 31896 ft | 490 kts | 322° |
| 2026-05-07 19:21 | 29.63338 | 48.17592 | 31894 ft | 490 kts | 322° |
| 2026-05-07 19:21 | 29.69262 | 48.13644 | 31897 ft | 490 kts | 322° |
| 2026-05-07 19:22 | 29.75172 | 48.09698 | 31893 ft | 491 kts | 322° |
| 2026-05-07 19:22 | 29.81060 | 48.05762 | 31899 ft | 493 kts | 322° |
| 2026-05-07 19:23 | 29.86996 | 48.01792 | 31901 ft | 493 kts | 322° |
| 2026-05-07 19:23 | 29.92919 | 47.97824 | 31911 ft | 494 kts | 322° |
| 2026-05-07 19:24 | 29.98871 | 47.93830 | 31912 ft | 495 kts | 322° |
| 2026-05-07 19:24 | 30.04473 | 47.89382 | 31916 ft | 480 kts | 308° |
| 2026-05-07 19:25 | 30.08839 | 47.83754 | 31926 ft | 472 kts | 301° |
| 2026-05-07 19:25 | 30.12976 | 47.77835 | 31921 ft | 473 kts | 301° |
| 2026-05-07 19:26 | 30.17160 | 47.72030 | 31917 ft | 473 kts | 302° |
| 2026-05-07 19:26 | 30.21435 | 47.66231 | 31927 ft | 474 kts | 302° |
| 2026-05-07 19:27 | 30.25737 | 47.60421 | 31926 ft | 475 kts | 302° |
| 2026-05-07 19:27 | 30.30028 | 47.54616 | 31924 ft | 474 kts | 302° |
| 2026-05-07 19:28 | 30.34304 | 47.48818 | 31930 ft | 474 kts | 302° |
| 2026-05-07 19:28 | 30.38592 | 47.42993 | 31927 ft | 475 kts | 302° |
| 2026-05-07 19:29 | 30.42888 | 47.37147 | 31932 ft | 475 kts | 302° |
| 2026-05-07 19:29 | 30.47139 | 47.31355 | 31952 ft | 475 kts | 301° |
| 2026-05-07 19:30 | 30.51416 | 47.25519 | 31944 ft | 475 kts | 301° |
| 2026-05-07 19:30 | 30.55923 | 47.19847 | 31941 ft | 485 kts | 309° |
| 2026-05-07 19:31 | 30.61146 | 47.14802 | 31946 ft | 490 kts | 313° |
| 2026-05-07 19:31 | 30.66522 | 47.09917 | 31947 ft | 490 kts | 313° |
| 2026-05-07 19:32 | 30.71849 | 47.04996 | 31946 ft | 489 kts | 312° |
| 2026-05-07 19:32 | 30.77150 | 47.00026 | 31960 ft | 489 kts | 311° |
| 2026-05-07 19:33 | 30.82453 | 46.95028 | 31954 ft | 489 kts | 311° |
| 2026-05-07 19:33 | 30.87737 | 46.90043 | 31956 ft | 489 kts | 311° |
| 2026-05-07 19:34 | 30.92990 | 46.85082 | 31958 ft | 489 kts | 311° |
| 2026-05-07 19:34 | 30.98275 | 46.80086 | 31950 ft | 489 kts | 311° |
| 2026-05-07 19:35 | 31.03559 | 46.75082 | 31958 ft | 489 kts | 311° |
| 2026-05-07 19:35 | 31.08846 | 46.70068 | 31959 ft | 489 kts | 311° |
| 2026-05-07 19:36 | 31.14114 | 46.65065 | 31960 ft | 488 kts | 311° |
| 2026-05-07 19:36 | 31.19388 | 46.60046 | 31962 ft | 488 kts | 311° |
| 2026-05-07 19:37 | 31.24634 | 46.55026 | 31978 ft | 488 kts | 311° |
| 2026-05-07 19:37 | 31.29856 | 46.50032 | 31967 ft | 488 kts | 311° |
| 2026-05-07 19:38 | 31.35114 | 46.45006 | 31983 ft | 488 kts | 311° |
| 2026-05-07 19:38 | 31.40368 | 46.39980 | 31977 ft | 487 kts | 311° |
| 2026-05-07 19:39 | 31.45609 | 46.34958 | 31987 ft | 487 kts | 311° |
| 2026-05-07 19:39 | 31.50857 | 46.29920 | 31994 ft | 488 kts | 311° |
| 2026-05-07 19:40 | 31.56065 | 46.24916 | 31982 ft | 487 kts | 311° |
| 2026-05-07 19:40 | 31.61310 | 46.19867 | 31990 ft | 487 kts | 310° |
| 2026-05-07 19:41 | 31.66544 | 46.14821 | 32013 ft | 487 kts | 310° |
| 2026-05-07 19:41 | 31.71780 | 46.09766 | 32016 ft | 487 kts | 310° |
| 2026-05-07 19:42 | 31.76997 | 46.04671 | 32036 ft | 486 kts | 310° |
| 2026-05-07 19:42 | 31.82160 | 45.99520 | 32019 ft | 486 kts | 309° |
| 2026-05-07 19:43 | 31.87284 | 45.94398 | 32023 ft | 486 kts | 309° |
| 2026-05-07 19:43 | 31.92439 | 45.89250 | 32025 ft | 486 kts | 309° |
| 2026-05-07 19:44 | 31.97606 | 45.84087 | 32018 ft | 486 kts | 309° |
| 2026-05-07 19:44 | 32.02765 | 45.78924 | 32023 ft | 486 kts | 309° |
| 2026-05-07 19:45 | 32.07926 | 45.73753 | 32028 ft | 486 kts | 309° |
| 2026-05-07 19:45 | 32.13077 | 45.68582 | 32026 ft | 486 kts | 309° |
| 2026-05-07 19:46 | 32.18192 | 45.63439 | 32041 ft | 486 kts | 309° |
| 2026-05-07 19:46 | 32.23339 | 45.58257 | 32028 ft | 486 kts | 309° |
| 2026-05-07 19:47 | 32.28486 | 45.53067 | 32030 ft | 486 kts | 309° |
| 2026-05-07 19:47 | 32.33623 | 45.47878 | 32041 ft | 486 kts | 309° |
| 2026-05-07 19:48 | 32.38753 | 45.42684 | 32032 ft | 485 kts | 309° |
| 2026-05-07 19:48 | 32.43876 | 45.37468 | 32035 ft | 485 kts | 309° |
| 2026-05-07 19:49 | 32.48993 | 45.32262 | 32033 ft | 485 kts | 309° |
| 2026-05-07 19:49 | 32.54290 | 45.27225 | 32035 ft | 492 kts | 314° |
| 2026-05-07 19:50 | 32.59944 | 45.22662 | 32046 ft | 496 kts | 317° |
| 2026-05-07 19:50 | 32.65699 | 45.18157 | 32044 ft | 495 kts | 317° |
| 2026-05-07 19:51 | 32.71426 | 45.13615 | 32045 ft | 494 kts | 316° |
| 2026-05-07 19:51 | 32.77127 | 45.09046 | 32050 ft | 494 kts | 316° |
| 2026-05-07 19:52 | 32.82821 | 45.04467 | 32050 ft | 494 kts | 316° |
| 2026-05-07 19:52 | 32.88509 | 44.99887 | 32066 ft | 494 kts | 316° |
| 2026-05-07 19:53 | 32.94182 | 44.95315 | 32060 ft | 492 kts | 317° |
| 2026-05-07 19:53 | 32.99806 | 44.90775 | 32059 ft | 492 kts | 317° |
| 2026-05-07 19:54 | 33.05481 | 44.86185 | 32065 ft | 492 kts | 317° |
| 2026-05-07 19:54 | 33.11142 | 44.81600 | 32064 ft | 492 kts | 316° |
| 2026-05-07 19:55 | 33.16764 | 44.77043 | 32072 ft | 492 kts | 317° |
| 2026-05-07 19:55 | 33.22914 | 44.73317 | 32069 ft | 512 kts | 335° |
| 2026-05-07 19:56 | 33.26421 | 44.72368 | 32073 ft | 524 kts | 346° |
| 2026-05-07 19:56 | 33.30093 | 44.72102 | 32072 ft | 532 kts | 354° |
| 2026-05-07 19:56 | 33.37534 | 44.72426 | 32069 ft | 536 kts | 356° |
| 2026-05-07 19:57 | 33.44972 | 44.72576 | 32066 ft | 533 kts | 353° |
| 2026-05-07 19:57 | 33.52315 | 44.72410 | 32067 ft | 532 kts | 352° |
| 2026-05-07 19:58 | 33.59719 | 44.72146 | 32062 ft | 530 kts | 352° |
| 2026-05-07 19:58 | 33.67041 | 44.71893 | 32052 ft | 529 kts | 352° |
| 2026-05-07 19:59 | 33.74409 | 44.71654 | 32075 ft | 530 kts | 352° |
| 2026-05-07 19:59 | 33.81775 | 44.71421 | 32048 ft | 528 kts | 352° |
| 2026-05-07 20:00 | 33.89120 | 44.71188 | 32051 ft | 528 kts | 352° |
| 2026-05-07 20:00 | 33.96463 | 44.70952 | 32057 ft | 527 kts | 353° |
| 2026-05-07 20:01 | 34.03797 | 44.70719 | 32051 ft | 526 kts | 353° |
| 2026-05-07 20:01 | 34.11113 | 44.70483 | 32051 ft | 526 kts | 353° |
| 2026-05-07 20:02 | 34.18409 | 44.70248 | 32050 ft | 523 kts | 353° |
| 2026-05-07 20:02 | 34.25666 | 44.70016 | 32056 ft | 521 kts | 353° |
| 2026-05-07 20:03 | 34.31688 | 44.69820 | 32069 ft | 521 kts | 353° |
| 2026-05-07 20:03 | 34.40120 | 44.69547 | 32060 ft | 520 kts | 353° |
| 2026-05-07 20:04 | 34.46186 | 44.69351 | 32060 ft | 520 kts | 353° |
| 2026-05-07 20:04 | 34.53292 | 44.68444 | 32066 ft | 506 kts | 338° |
| 2026-05-07 20:05 | 34.59760 | 44.65523 | 32063 ft | 496 kts | 329° |
| 2026-05-07 20:05 | 34.66072 | 44.62139 | 32062 ft | 497 kts | 330° |
| 2026-05-07 20:06 | 34.72460 | 44.58895 | 32064 ft | 496 kts | 332° |
| 2026-05-07 20:06 | 34.78861 | 44.55777 | 32060 ft | 496 kts | 332° |
| 2026-05-07 20:07 | 34.85280 | 44.52674 | 32066 ft | 496 kts | 332° |
| 2026-05-07 20:07 | 34.91708 | 44.49555 | 32062 ft | 496 kts | 332° |
| 2026-05-07 20:08 | 34.98107 | 44.46440 | 32074 ft | 496 kts | 332° |
| 2026-05-07 20:08 | 35.04522 | 44.43310 | 32064 ft | 496 kts | 332° |
| 2026-05-07 20:09 | 35.10922 | 44.40183 | 32074 ft | 495 kts | 332° |
| 2026-05-07 20:10 | 35.20402 | 44.35542 | 32090 ft | 493 kts | 332° |
| 2026-05-07 20:10 | 35.26764 | 44.32419 | 32075 ft | 492 kts | 332° |
| 2026-05-07 20:11 | 35.33090 | 44.29215 | 32069 ft | 491 kts | 331° |
| 2026-05-07 20:11 | 35.39390 | 44.25960 | 32068 ft | 492 kts | 330° |
| 2026-05-07 20:12 | 35.45693 | 44.22705 | 32064 ft | 492 kts | 330° |
| 2026-05-07 20:12 | 35.52001 | 44.19451 | 32079 ft | 491 kts | 330° |
| 2026-05-07 20:13 | 35.58299 | 44.16200 | 32076 ft | 491 kts | 330° |
| 2026-05-07 20:13 | 35.64594 | 44.12944 | 32063 ft | 491 kts | 330° |
| 2026-05-07 20:14 | 35.70884 | 44.09684 | 32066 ft | 491 kts | 330° |
| 2026-05-07 20:14 | 35.77189 | 44.06411 | 32070 ft | 492 kts | 330° |
| 2026-05-07 20:15 | 35.83412 | 44.03172 | 32073 ft | 491 kts | 330° |
| 2026-05-07 20:15 | 35.89709 | 43.99881 | 32090 ft | 492 kts | 330° |
| 2026-05-07 20:16 | 35.96014 | 43.96588 | 32072 ft | 492 kts | 330° |
| 2026-05-07 20:16 | 36.02324 | 43.93289 | 32072 ft | 492 kts | 330° |
| 2026-05-07 20:17 | 36.08601 | 43.90004 | 32085 ft | 492 kts | 330° |
| 2026-05-07 20:17 | 36.14913 | 43.86693 | 32075 ft | 492 kts | 330° |
| 2026-05-07 20:18 | 36.21222 | 43.83378 | 32083 ft | 493 kts | 329° |
| 2026-05-07 20:18 | 36.27536 | 43.80057 | 32075 ft | 493 kts | 330° |
| 2026-05-07 20:19 | 36.33879 | 43.76755 | 32075 ft | 494 kts | 330° |
| 2026-05-07 20:19 | 36.40225 | 43.73469 | 32080 ft | 495 kts | 330° |
| 2026-05-07 20:20 | 36.46546 | 43.70193 | 32080 ft | 495 kts | 330° |
| 2026-05-07 20:20 | 36.52905 | 43.66890 | 32092 ft | 496 kts | 330° |
| 2026-05-07 20:21 | 36.59271 | 43.63577 | 32090 ft | 496 kts | 330° |
| 2026-05-07 20:21 | 36.65641 | 43.60255 | 32095 ft | 496 kts | 329° |
| 2026-05-07 20:22 | 36.72012 | 43.56926 | 32094 ft | 497 kts | 329° |
| 2026-05-07 20:22 | 36.78338 | 43.53504 | 32103 ft | 495 kts | 328° |
| 2026-05-07 20:23 | 36.84621 | 43.49971 | 32105 ft | 495 kts | 328° |
| 2026-05-07 20:23 | 36.90892 | 43.46433 | 32109 ft | 494 kts | 328° |
| 2026-05-07 20:24 | 36.97178 | 43.42891 | 32154 ft | 496 kts | 328° |
| 2026-05-07 20:24 | 37.03472 | 43.39348 | 32118 ft | 496 kts | 328° |
| 2026-05-07 20:25 | 37.09706 | 43.35832 | 32126 ft | 496 kts | 328° |
| 2026-05-07 20:25 | 37.15995 | 43.32277 | 32144 ft | 496 kts | 328° |
| 2026-05-07 20:26 | 37.22295 | 43.28710 | 32137 ft | 497 kts | 328° |
| 2026-05-07 20:26 | 37.28595 | 43.25131 | 32168 ft | 497 kts | 327° |
| 2026-05-07 20:27 | 37.34404 | 43.20819 | 32124 ft | 477 kts | 311° |
| 2026-05-07 20:27 | 37.36711 | 43.17923 | 32150 ft | 463 kts | 300° |
| 2026-05-07 20:27 | 37.38512 | 43.14615 | 32130 ft | 454 kts | 292° |
| 2026-05-07 20:28 | 37.41362 | 43.07577 | 32145 ft | 452 kts | 288° |
| 2026-05-07 20:28 | 37.44147 | 43.00476 | 32141 ft | 453 kts | 289° |
| 2026-05-07 20:29 | 37.47062 | 42.93420 | 32139 ft | 455 kts | 290° |
| 2026-05-07 20:29 | 37.50030 | 42.86386 | 32175 ft | 454 kts | 291° |
| 2026-05-07 20:30 | 37.53005 | 42.79348 | 32131 ft | 455 kts | 291° |
| 2026-05-07 20:30 | 37.55973 | 42.72306 | 32136 ft | 455 kts | 291° |
| 2026-05-07 20:31 | 37.58928 | 42.65266 | 32144 ft | 455 kts | 291° |
| 2026-05-07 20:31 | 37.61884 | 42.58188 | 32141 ft | 456 kts | 291° |
| 2026-05-07 20:32 | 37.64829 | 42.51146 | 32138 ft | 456 kts | 291° |
| 2026-05-07 20:32 | 37.67787 | 42.44077 | 32133 ft | 455 kts | 291° |
| 2026-05-07 20:33 | 37.70748 | 42.36978 | 32135 ft | 457 kts | 292° |
| 2026-05-07 20:33 | 37.73714 | 42.29859 | 32135 ft | 458 kts | 292° |
| 2026-05-07 20:34 | 37.76681 | 42.22723 | 32133 ft | 458 kts | 292° |
| 2026-05-07 20:34 | 37.79638 | 42.15591 | 32131 ft | 458 kts | 292° |
| 2026-05-07 20:35 | 37.82589 | 42.08458 | 32136 ft | 458 kts | 292° |
| 2026-05-07 20:35 | 37.85522 | 42.01352 | 32135 ft | 460 kts | 292° |
| 2026-05-07 20:36 | 37.88472 | 41.94204 | 32127 ft | 458 kts | 292° |
| 2026-05-07 20:36 | 37.91782 | 41.87278 | 32130 ft | 465 kts | 302° |
| 2026-05-07 20:37 | 37.96012 | 41.81021 | 32124 ft | 469 kts | 307° |
| 2026-05-07 20:37 | 38.00407 | 41.74901 | 32131 ft | 469 kts | 308° |
| 2026-05-07 20:38 | 38.04746 | 41.68742 | 32112 ft | 467 kts | 307° |
| 2026-05-07 20:38 | 38.09032 | 41.62561 | 32122 ft | 467 kts | 307° |
| 2026-05-07 20:39 | 38.13312 | 41.56351 | 32125 ft | 467 kts | 307° |
| 2026-05-07 20:39 | 38.17589 | 41.50138 | 32123 ft | 467 kts | 307° |
| 2026-05-07 20:40 | 38.21822 | 41.43978 | 32127 ft | 467 kts | 307° |
| 2026-05-07 20:40 | 38.26064 | 41.37796 | 32134 ft | 466 kts | 308° |
| 2026-05-07 20:41 | 38.30315 | 41.31588 | 32136 ft | 464 kts | 308° |
| 2026-05-07 20:41 | 38.34562 | 41.25374 | 32129 ft | 465 kts | 308° |
| 2026-05-07 20:42 | 38.38793 | 41.19170 | 32134 ft | 463 kts | 309° |
| 2026-05-07 20:42 | 38.43011 | 41.12974 | 32138 ft | 462 kts | 309° |
| 2026-05-07 20:43 | 38.47199 | 41.06750 | 32140 ft | 462 kts | 308° |
| 2026-05-07 20:43 | 38.51306 | 41.00467 | 32139 ft | 459 kts | 308° |
| 2026-05-07 20:44 | 38.55365 | 40.94235 | 32148 ft | 458 kts | 308° |
| 2026-05-07 20:44 | 38.59448 | 40.87976 | 32150 ft | 459 kts | 308° |
| 2026-05-07 20:45 | 38.63541 | 40.81711 | 32158 ft | 457 kts | 309° |
| 2026-05-07 20:45 | 38.67647 | 40.75493 | 32172 ft | 458 kts | 309° |
| 2026-05-07 20:46 | 38.71778 | 40.69257 | 32179 ft | 459 kts | 309° |
| 2026-05-07 20:46 | 38.75899 | 40.63024 | 32175 ft | 458 kts | 309° |
| 2026-05-07 20:47 | 38.80007 | 40.56797 | 32182 ft | 457 kts | 309° |
| 2026-05-07 20:47 | 38.84109 | 40.50565 | 32182 ft | 457 kts | 309° |
| 2026-05-07 20:48 | 38.88193 | 40.44348 | 32184 ft | 455 kts | 309° |
| 2026-05-07 20:48 | 38.92262 | 40.38142 | 32184 ft | 454 kts | 309° |
| 2026-05-07 20:49 | 38.95639 | 40.32982 | 32182 ft | 453 kts | 309° |
| 2026-05-07 20:49 | 38.99693 | 40.26778 | 32186 ft | 452 kts | 309° |
| 2026-05-07 20:50 | 39.03729 | 40.20588 | 32190 ft | 451 kts | 309° |
| 2026-05-07 20:50 | 39.06385 | 40.16508 | 32395 ft | 451 kts | 309° |
| 2026-05-07 20:50 | 39.07749 | 40.14411 | 32617 ft | 452 kts | 309° |
| 2026-05-07 20:50 | 39.09764 | 40.11310 | 32925 ft | 452 kts | 309° |
| 2026-05-07 20:51 | 39.11782 | 40.08201 | 33221 ft | 453 kts | 309° |
| 2026-05-07 20:51 | 39.13800 | 40.05090 | 33532 ft | 453 kts | 309° |
| 2026-05-07 20:51 | 39.15825 | 40.01963 | 33814 ft | 453 kts | 309° |
| 2026-05-07 20:51 | 39.17814 | 39.98872 | 34067 ft | 454 kts | 308° |
| 2026-05-07 20:52 | 39.19835 | 39.95718 | 34169 ft | 457 kts | 308° |
| 2026-05-07 20:52 | 39.23884 | 39.89405 | 34188 ft | 455 kts | 309° |
| 2026-05-07 20:53 | 39.27925 | 39.83120 | 34192 ft | 454 kts | 309° |
| 2026-05-07 20:53 | 39.31960 | 39.76840 | 34191 ft | 455 kts | 309° |
| 2026-05-07 20:54 | 39.35997 | 39.70545 | 34196 ft | 455 kts | 309° |
| 2026-05-07 20:54 | 39.40033 | 39.64239 | 34198 ft | 454 kts | 309° |
| 2026-05-07 20:55 | 39.44018 | 39.57999 | 34202 ft | 454 kts | 309° |
| 2026-05-07 20:55 | 39.48036 | 39.51695 | 34204 ft | 453 kts | 309° |
| 2026-05-07 20:56 | 39.52002 | 39.45426 | 34206 ft | 452 kts | 309° |
| 2026-05-07 20:56 | 39.55943 | 39.39077 | 34208 ft | 452 kts | 309° |
| 2026-05-07 20:57 | 39.59877 | 39.32722 | 34217 ft | 452 kts | 309° |
| 2026-05-07 20:57 | 39.63804 | 39.26383 | 34196 ft | 449 kts | 309° |
| 2026-05-07 20:58 | 39.67723 | 39.20049 | 34200 ft | 449 kts | 309° |
| 2026-05-07 20:58 | 39.71637 | 39.13712 | 34187 ft | 450 kts | 309° |
| 2026-05-07 20:59 | 39.75545 | 39.07419 | 34196 ft | 450 kts | 309° |
| 2026-05-07 20:59 | 39.79491 | 39.01101 | 34203 ft | 450 kts | 309° |
| 2026-05-07 21:00 | 39.83442 | 38.94773 | 34203 ft | 450 kts | 309° |
| 2026-05-07 21:00 | 39.87388 | 38.88439 | 34201 ft | 450 kts | 309° |
| 2026-05-07 21:01 | 39.91330 | 38.82099 | 34202 ft | 450 kts | 309° |
| 2026-05-07 21:01 | 39.95279 | 38.75733 | 34220 ft | 451 kts | 309° |
| 2026-05-07 21:02 | 39.99209 | 38.69386 | 34199 ft | 450 kts | 310° |
| 2026-05-07 21:02 | 40.03117 | 38.63060 | 34196 ft | 449 kts | 310° |
| 2026-05-07 21:03 | 40.07040 | 38.56699 | 34198 ft | 449 kts | 309° |
| 2026-05-07 21:03 | 40.10956 | 38.50335 | 34209 ft | 449 kts | 310° |
| 2026-05-07 21:04 | 40.14873 | 38.43956 | 34207 ft | 449 kts | 310° |
| 2026-05-07 21:04 | 40.18788 | 38.37567 | 34204 ft | 449 kts | 310° |
| 2026-05-07 21:05 | 40.22695 | 38.31179 | 34187 ft | 449 kts | 310° |
| 2026-05-07 21:05 | 40.26586 | 38.24769 | 34198 ft | 450 kts | 309° |
| 2026-05-07 21:06 | 40.30475 | 38.18339 | 34206 ft | 450 kts | 309° |
| 2026-05-07 21:06 | 40.33945 | 38.11587 | 34202 ft | 452 kts | 297° |
| 2026-05-07 21:07 | 40.36343 | 38.03927 | 34206 ft | 455 kts | 292° |
| 2026-05-07 21:07 | 40.38532 | 37.96156 | 34208 ft | 454 kts | 292° |
| 2026-05-07 21:08 | 40.40783 | 37.88417 | 34211 ft | 454 kts | 293° |
| 2026-05-07 21:08 | 40.43078 | 37.80691 | 34205 ft | 453 kts | 293° |
| 2026-05-07 21:09 | 40.45378 | 37.72976 | 34215 ft | 453 kts | 293° |
| 2026-05-07 21:09 | 40.47650 | 37.65317 | 34218 ft | 453 kts | 293° |
| 2026-05-07 21:10 | 40.49914 | 37.57656 | 34220 ft | 453 kts | 293° |
| 2026-05-07 21:10 | 40.52198 | 37.49940 | 34222 ft | 453 kts | 293° |
| 2026-05-07 21:11 | 40.54480 | 37.42221 | 34222 ft | 453 kts | 293° |
| 2026-05-07 21:11 | 40.57893 | 37.30640 | 34220 ft | 452 kts | 293° |
| 2026-05-07 21:12 | 40.60158 | 37.22922 | 34216 ft | 452 kts | 293° |
| 2026-05-07 21:12 | 40.62417 | 37.15204 | 34222 ft | 452 kts | 293° |
| 2026-05-07 21:13 | 40.64670 | 37.07485 | 34219 ft | 451 kts | 293° |
| 2026-05-07 21:13 | 40.66918 | 36.99756 | 34208 ft | 451 kts | 293° |
| 2026-05-07 21:14 | 40.69157 | 36.92039 | 34203 ft | 451 kts | 293° |
| 2026-05-07 21:14 | 40.71380 | 36.84353 | 34204 ft | 451 kts | 293° |
| 2026-05-07 21:15 | 40.73608 | 36.76627 | 34200 ft | 451 kts | 293° |
| 2026-05-07 21:15 | 40.75830 | 36.68894 | 34176 ft | 451 kts | 293° |
| 2026-05-07 21:16 | 40.78025 | 36.61137 | 34190 ft | 451 kts | 292° |
| 2026-05-07 21:16 | 40.80218 | 36.53387 | 34191 ft | 451 kts | 293° |
| 2026-05-07 21:17 | 40.82421 | 36.45633 | 34196 ft | 451 kts | 293° |
| 2026-05-07 21:17 | 40.84627 | 36.37873 | 34184 ft | 450 kts | 293° |
| 2026-05-07 21:18 | 40.86807 | 36.30179 | 34182 ft | 450 kts | 293° |
| 2026-05-07 21:18 | 40.88996 | 36.22430 | 34176 ft | 449 kts | 293° |
| 2026-05-07 21:19 | 40.91177 | 36.14686 | 34177 ft | 450 kts | 292° |
| 2026-05-07 21:19 | 40.93352 | 36.06931 | 34163 ft | 448 kts | 293° |
| 2026-05-07 21:20 | 40.95493 | 35.99213 | 34158 ft | 447 kts | 293° |
| 2026-05-07 21:20 | 40.97637 | 35.91489 | 34160 ft | 447 kts | 293° |
| 2026-05-07 21:21 | 40.99786 | 35.83749 | 34152 ft | 447 kts | 293° |
| 2026-05-07 21:21 | 41.01921 | 35.76035 | 34144 ft | 445 kts | 293° |
| 2026-05-07 21:22 | 41.04046 | 35.68349 | 34145 ft | 444 kts | 293° |
| 2026-05-07 21:22 | 41.06155 | 35.60708 | 34150 ft | 444 kts | 293° |
| 2026-05-07 21:23 | 41.08284 | 35.52971 | 34142 ft | 444 kts | 293° |
| 2026-05-07 21:23 | 41.10393 | 35.45277 | 34156 ft | 443 kts | 293° |
| 2026-05-07 21:24 | 41.12490 | 35.37609 | 34151 ft | 442 kts | 293° |
| 2026-05-07 21:24 | 41.14567 | 35.29989 | 34151 ft | 442 kts | 293° |
| 2026-05-07 21:25 | 41.16636 | 35.22373 | 34131 ft | 442 kts | 293° |
| 2026-05-07 21:25 | 41.18719 | 35.14685 | 34134 ft | 443 kts | 293° |
| 2026-05-07 21:26 | 41.20793 | 35.07003 | 34132 ft | 442 kts | 293° |
| 2026-05-07 21:26 | 41.22867 | 34.99300 | 34147 ft | 442 kts | 292° |
| 2026-05-07 21:27 | 41.24933 | 34.91601 | 34149 ft | 443 kts | 293° |
| 2026-05-07 21:27 | 41.26985 | 34.83882 | 34143 ft | 442 kts | 292° |
| 2026-05-07 21:28 | 41.29018 | 34.76160 | 34146 ft | 442 kts | 292° |
| 2026-05-07 21:28 | 41.31065 | 34.68435 | 34153 ft | 442 kts | 292° |
| 2026-05-07 21:29 | 41.33111 | 34.60724 | 34145 ft | 441 kts | 293° |
| 2026-05-07 21:29 | 41.35140 | 34.53064 | 34164 ft | 441 kts | 292° |
| 2026-05-07 21:30 | 41.37170 | 34.45372 | 34167 ft | 441 kts | 292° |
| 2026-05-07 21:30 | 41.39202 | 34.37653 | 34168 ft | 441 kts | 292° |
| 2026-05-07 21:31 | 41.41206 | 34.29947 | 34169 ft | 439 kts | 292° |
| 2026-05-07 21:31 | 41.43190 | 34.22239 | 34177 ft | 439 kts | 292° |
| 2026-05-07 21:32 | 41.45176 | 34.14539 | 34179 ft | 439 kts | 292° |
| 2026-05-07 21:32 | 41.47159 | 34.06840 | 34189 ft | 439 kts | 292° |
| 2026-05-07 21:33 | 41.49128 | 33.99193 | 34186 ft | 438 kts | 292° |
| 2026-05-07 21:33 | 41.51105 | 33.91498 | 34189 ft | 438 kts | 292° |
| 2026-05-07 21:34 | 41.53079 | 33.83800 | 34197 ft | 439 kts | 292° |
| 2026-05-07 21:34 | 41.55037 | 33.76135 | 34197 ft | 438 kts | 292° |
| 2026-05-07 21:35 | 41.56997 | 33.68433 | 34194 ft | 437 kts | 292° |
| 2026-05-07 21:35 | 41.58948 | 33.60746 | 34189 ft | 437 kts | 292° |
| 2026-05-07 21:36 | 41.60572 | 33.54297 | 34194 ft | 437 kts | 292° |
| 2026-05-07 21:36 | 41.62498 | 33.46603 | 34190 ft | 437 kts | 292° |
| 2026-05-07 21:37 | 41.64428 | 33.38901 | 34193 ft | 437 kts | 292° |
| 2026-05-07 21:37 | 41.66359 | 33.31192 | 34187 ft | 436 kts | 292° |
| 2026-05-07 21:38 | 41.68269 | 33.23546 | 34178 ft | 437 kts | 292° |
| 2026-05-07 21:38 | 41.70185 | 33.15848 | 34180 ft | 436 kts | 292° |
| 2026-05-07 21:39 | 41.72099 | 33.08141 | 34163 ft | 437 kts | 292° |
| 2026-05-07 21:39 | 41.74006 | 33.00398 | 34164 ft | 438 kts | 292° |
| 2026-05-07 21:40 | 41.75894 | 32.92683 | 34167 ft | 439 kts | 292° |
| 2026-05-07 21:40 | 41.77797 | 32.84919 | 34152 ft | 438 kts | 292° |
| 2026-05-07 21:41 | 41.79700 | 32.77151 | 34147 ft | 439 kts | 291° |
| 2026-05-07 21:41 | 41.81593 | 32.69361 | 34148 ft | 440 kts | 291° |
| 2026-05-07 21:42 | 41.83488 | 32.61542 | 34136 ft | 440 kts | 291° |
| 2026-05-07 21:42 | 41.85373 | 32.53754 | 34138 ft | 439 kts | 291° |
| 2026-05-07 21:43 | 41.87246 | 32.45988 | 34131 ft | 439 kts | 291° |
| 2026-05-07 21:43 | 41.89105 | 32.38178 | 34135 ft | 439 kts | 291° |
| 2026-05-07 21:44 | 41.90975 | 32.30366 | 34135 ft | 439 kts | 291° |
| 2026-05-07 21:44 | 41.92849 | 32.22565 | 34135 ft | 439 kts | 291° |
| 2026-05-07 21:45 | 41.94707 | 32.14756 | 34138 ft | 439 kts | 291° |
| 2026-05-07 21:45 | 41.96561 | 32.06928 | 34138 ft | 439 kts | 291° |
| 2026-05-07 21:46 | 41.98413 | 31.99095 | 34133 ft | 439 kts | 291° |
| 2026-05-07 21:46 | 42.00256 | 31.91271 | 34132 ft | 439 kts | 291° |
| 2026-05-07 21:47 | 42.02090 | 31.83431 | 34130 ft | 439 kts | 291° |
| 2026-05-07 21:47 | 42.03908 | 31.75647 | 34132 ft | 438 kts | 291° |
| 2026-05-07 21:48 | 42.05736 | 31.67818 | 34135 ft | 438 kts | 291° |
| 2026-05-07 21:48 | 42.07559 | 31.59994 | 34135 ft | 438 kts | 291° |
| 2026-05-07 21:49 | 42.09381 | 31.52149 | 34132 ft | 438 kts | 291° |
| 2026-05-07 21:49 | 42.11195 | 31.44308 | 34134 ft | 439 kts | 291° |
| 2026-05-07 21:50 | 42.12991 | 31.36459 | 34136 ft | 438 kts | 290° |
| 2026-05-07 21:50 | 42.14776 | 31.28600 | 34137 ft | 438 kts | 290° |
| 2026-05-07 21:51 | 42.16565 | 31.20736 | 34137 ft | 438 kts | 290° |
| 2026-05-07 21:51 | 42.18349 | 31.12881 | 34136 ft | 438 kts | 290° |
| 2026-05-07 21:52 | 42.20116 | 31.05078 | 34136 ft | 438 kts | 290° |
| 2026-05-07 21:52 | 42.21887 | 30.97226 | 34135 ft | 438 kts | 290° |
| 2026-05-07 21:53 | 42.23652 | 30.89374 | 34131 ft | 436 kts | 290° |
| 2026-05-07 21:53 | 42.25409 | 30.81533 | 34136 ft | 436 kts | 290° |
| 2026-05-07 21:54 | 42.27159 | 30.73692 | 34144 ft | 436 kts | 290° |
| 2026-05-07 21:54 | 42.28903 | 30.65848 | 34140 ft | 436 kts | 290° |
| 2026-05-07 21:55 | 42.30630 | 30.58056 | 34139 ft | 436 kts | 289° |
| 2026-05-07 21:55 | 42.32367 | 30.50187 | 34143 ft | 436 kts | 289° |
| 2026-05-07 21:56 | 42.34098 | 30.42317 | 34139 ft | 436 kts | 289° |
| 2026-05-07 21:56 | 42.35822 | 30.34447 | 34141 ft | 436 kts | 289° |
| 2026-05-07 21:57 | 42.37511 | 30.26563 | 34127 ft | 437 kts | 288° |
| 2026-05-07 21:57 | 42.39198 | 30.18703 | 34139 ft | 438 kts | 289° |
| 2026-05-07 21:58 | 42.40907 | 30.10785 | 34147 ft | 438 kts | 289° |
| 2026-05-07 21:58 | 42.42618 | 30.02862 | 34154 ft | 438 kts | 289° |
| 2026-05-07 21:59 | 42.44307 | 29.95014 | 34147 ft | 438 kts | 288° |
| 2026-05-07 21:59 | 42.46366 | 29.87316 | 34151 ft | 437 kts | 301° |
| 2026-05-07 22:00 | 42.49890 | 29.80645 | 34149 ft | 436 kts | 309° |
| 2026-05-07 22:00 | 42.53751 | 29.74319 | 34144 ft | 435 kts | 310° |
| 2026-05-07 22:01 | 42.57545 | 29.67948 | 34134 ft | 434 kts | 308° |
| 2026-05-07 22:01 | 42.61295 | 29.61490 | 34134 ft | 437 kts | 308° |
| 2026-05-07 22:02 | 42.65034 | 29.54989 | 34132 ft | 436 kts | 308° |
| 2026-05-07 22:02 | 42.68767 | 29.48481 | 34137 ft | 436 kts | 308° |
| 2026-05-07 22:03 | 42.72476 | 29.42006 | 34147 ft | 438 kts | 307° |
| 2026-05-07 22:03 | 42.76220 | 29.35455 | 34149 ft | 439 kts | 307° |
| 2026-05-07 22:04 | 42.79959 | 29.28900 | 34149 ft | 438 kts | 307° |
| 2026-05-07 22:04 | 42.83696 | 29.22332 | 34128 ft | 438 kts | 307° |
| 2026-05-07 22:05 | 42.87430 | 29.15756 | 34128 ft | 438 kts | 307° |
| 2026-05-07 22:05 | 42.91159 | 29.09173 | 34128 ft | 438 kts | 307° |
| 2026-05-07 22:06 | 42.94883 | 29.02585 | 34128 ft | 438 kts | 307° |
| 2026-05-07 22:06 | 42.98575 | 28.96018 | 34138 ft | 439 kts | 307° |
| 2026-05-07 22:07 | 43.02289 | 28.89355 | 34142 ft | 442 kts | 307° |
| 2026-05-07 22:07 | 43.06022 | 28.82681 | 34142 ft | 442 kts | 307° |
| 2026-05-07 22:08 | 43.09757 | 28.76009 | 34141 ft | 441 kts | 307° |
| 2026-05-07 22:08 | 43.13492 | 28.69327 | 34141 ft | 442 kts | 306° |
| 2026-05-07 22:09 | 43.17235 | 28.62617 | 34135 ft | 444 kts | 306° |
| 2026-05-07 22:09 | 43.20982 | 28.55884 | 34141 ft | 444 kts | 306° |
| 2026-05-07 22:10 | 43.24687 | 28.49211 | 34133 ft | 444 kts | 306° |
| 2026-05-07 22:10 | 43.28424 | 28.42463 | 34138 ft | 446 kts | 306° |
| 2026-05-07 22:11 | 43.32184 | 28.35658 | 34142 ft | 447 kts | 306° |
| 2026-05-07 22:11 | 43.35937 | 28.28852 | 34138 ft | 446 kts | 306° |
| 2026-05-07 22:12 | 43.39654 | 28.22094 | 34127 ft | 446 kts | 306° |
| 2026-05-07 22:12 | 43.43398 | 28.15273 | 34102 ft | 448 kts | 306° |
| 2026-05-07 22:13 | 43.47149 | 28.08421 | 34101 ft | 449 kts | 305° |
| 2026-05-07 22:13 | 43.50885 | 28.01521 | 34093 ft | 449 kts | 305° |
| 2026-05-07 22:14 | 43.54617 | 27.94627 | 34091 ft | 449 kts | 305° |
| 2026-05-07 22:14 | 43.58491 | 27.87848 | 34091 ft | 451 kts | 308° |
| 2026-05-07 22:15 | 43.62625 | 27.81312 | 34104 ft | 452 kts | 309° |
| 2026-05-07 22:15 | 43.66791 | 27.74814 | 34104 ft | 452 kts | 309° |
| 2026-05-07 22:16 | 43.70935 | 27.68296 | 34093 ft | 452 kts | 309° |
| 2026-05-07 22:16 | 43.75075 | 27.61744 | 34086 ft | 452 kts | 309° |
| 2026-05-07 22:17 | 43.79186 | 27.55217 | 34081 ft | 452 kts | 309° |
| 2026-05-07 22:17 | 43.83318 | 27.48643 | 34081 ft | 452 kts | 309° |
| 2026-05-07 22:18 | 43.89512 | 27.38760 | 34074 ft | 454 kts | 309° |
| 2026-05-07 22:19 | 43.93687 | 27.32079 | 34065 ft | 455 kts | 309° |
| 2026-05-07 22:19 | 43.97796 | 27.25489 | 34059 ft | 455 kts | 309° |
| 2026-05-07 22:20 | 44.01933 | 27.18838 | 34064 ft | 455 kts | 308° |
| 2026-05-07 22:20 | 44.06088 | 27.12142 | 34060 ft | 458 kts | 308° |
| 2026-05-07 22:21 | 44.10236 | 27.05442 | 34052 ft | 455 kts | 308° |
| 2026-05-07 22:21 | 44.13644 | 26.99885 | 34053 ft | 454 kts | 308° |
| 2026-05-07 22:22 | 44.17749 | 26.93176 | 34055 ft | 455 kts | 308° |
| 2026-05-07 22:22 | 44.21873 | 26.86454 | 34051 ft | 456 kts | 308° |
| 2026-05-07 22:23 | 44.25979 | 26.79761 | 34050 ft | 456 kts | 308° |
| 2026-05-07 22:23 | 44.30106 | 26.73020 | 34050 ft | 456 kts | 308° |
| 2026-05-07 22:24 | 44.34225 | 26.66276 | 34050 ft | 456 kts | 308° |
| 2026-05-07 22:24 | 44.38345 | 26.59515 | 34048 ft | 456 kts | 308° |
| 2026-05-07 22:25 | 44.42420 | 26.52810 | 34049 ft | 456 kts | 308° |
| 2026-05-07 22:25 | 44.46493 | 26.46080 | 34052 ft | 455 kts | 307° |
| 2026-05-07 22:26 | 44.50444 | 26.39137 | 34054 ft | 456 kts | 305° |
| 2026-05-07 22:26 | 44.54339 | 26.32087 | 34053 ft | 457 kts | 305° |
| 2026-05-07 22:27 | 44.58239 | 26.25036 | 34050 ft | 457 kts | 305° |
| 2026-05-07 22:27 | 44.62143 | 26.17988 | 34049 ft | 457 kts | 305° |
| 2026-05-07 22:28 | 44.66058 | 26.10912 | 34050 ft | 458 kts | 305° |
| 2026-05-07 22:28 | 44.69967 | 26.03831 | 34051 ft | 458 kts | 305° |
| 2026-05-07 22:29 | 44.73868 | 25.96745 | 34052 ft | 458 kts | 305° |
| 2026-05-07 22:29 | 44.77768 | 25.89644 | 34051 ft | 458 kts | 305° |
| 2026-05-07 22:30 | 44.81666 | 25.82529 | 34058 ft | 458 kts | 305° |
| 2026-05-07 22:30 | 44.85539 | 25.75442 | 34063 ft | 458 kts | 305° |
| 2026-05-07 22:31 | 44.89425 | 25.68313 | 34061 ft | 458 kts | 305° |
| 2026-05-07 22:31 | 44.93307 | 25.61174 | 34076 ft | 459 kts | 304° |
| 2026-05-07 22:32 | 44.97188 | 25.54015 | 34064 ft | 459 kts | 304° |
| 2026-05-07 22:32 | 45.01044 | 25.46821 | 34065 ft | 459 kts | 304° |
| 2026-05-07 22:33 | 45.04904 | 25.39621 | 34068 ft | 459 kts | 304° |
| 2026-05-07 22:33 | 45.08770 | 25.32427 | 34084 ft | 460 kts | 304° |
| 2026-05-07 22:34 | 45.12650 | 25.25201 | 34076 ft | 461 kts | 304° |
| 2026-05-07 22:34 | 45.16523 | 25.17971 | 34084 ft | 461 kts | 304° |
| 2026-05-07 22:35 | 45.20393 | 25.10728 | 34081 ft | 460 kts | 304° |
| 2026-05-07 22:35 | 45.24255 | 25.03482 | 34093 ft | 460 kts | 304° |
| 2026-05-07 22:36 | 45.28110 | 24.96229 | 34088 ft | 459 kts | 303° |
| 2026-05-07 22:36 | 45.31955 | 24.88974 | 34086 ft | 460 kts | 303° |
| 2026-05-07 22:37 | 45.35774 | 24.81752 | 34092 ft | 459 kts | 303° |
| 2026-05-07 22:37 | 45.39608 | 24.74484 | 34090 ft | 460 kts | 303° |
| 2026-05-07 22:38 | 45.43451 | 24.67177 | 34087 ft | 461 kts | 303° |
| 2026-05-07 22:38 | 45.47302 | 24.59837 | 34085 ft | 461 kts | 303° |
| 2026-05-07 22:39 | 45.51116 | 24.52480 | 34079 ft | 461 kts | 303° |
| 2026-05-07 22:39 | 45.54931 | 24.45120 | 34081 ft | 462 kts | 302° |
| 2026-05-07 22:40 | 45.58722 | 24.37825 | 34075 ft | 465 kts | 302° |
| 2026-05-07 22:40 | 45.62575 | 24.30406 | 34081 ft | 465 kts | 302° |
| 2026-05-07 22:41 | 45.66426 | 24.22975 | 34079 ft | 464 kts | 302° |
| 2026-05-07 22:41 | 45.70268 | 24.15539 | 34081 ft | 463 kts | 302° |
| 2026-05-07 22:42 | 45.74081 | 24.08142 | 34077 ft | 460 kts | 302° |
| 2026-05-07 22:42 | 45.77866 | 24.00776 | 34078 ft | 459 kts | 302° |
| 2026-05-07 22:43 | 45.81633 | 23.93425 | 34063 ft | 460 kts | 302° |
| 2026-05-07 22:43 | 45.85411 | 23.86033 | 34075 ft | 460 kts | 302° |
| 2026-05-07 22:44 | 45.89190 | 23.78621 | 34056 ft | 460 kts | 302° |
| 2026-05-07 22:44 | 45.92961 | 23.71207 | 34083 ft | 461 kts | 302° |
| 2026-05-07 22:45 | 45.96745 | 23.63742 | 34085 ft | 462 kts | 302° |
| 2026-05-07 22:45 | 46.00504 | 23.56237 | 34065 ft | 462 kts | 302° |
| 2026-05-07 22:46 | 46.04256 | 23.48750 | 34068 ft | 460 kts | 302° |
| 2026-05-07 22:46 | 46.08010 | 23.41276 | 34065 ft | 460 kts | 302° |
| 2026-05-07 22:47 | 46.11742 | 23.33839 | 34066 ft | 461 kts | 302° |
| 2026-05-07 22:47 | 46.15522 | 23.26287 | 34075 ft | 460 kts | 302° |
| 2026-05-07 22:48 | 46.19232 | 23.18856 | 34072 ft | 459 kts | 302° |
| 2026-05-07 22:48 | 46.22952 | 23.11384 | 34071 ft | 458 kts | 302° |
| 2026-05-07 22:49 | 46.26677 | 23.03882 | 34076 ft | 459 kts | 301° |
| 2026-05-07 22:49 | 46.30396 | 22.96370 | 34081 ft | 459 kts | 301° |
| 2026-05-07 22:50 | 46.34114 | 22.88841 | 34072 ft | 459 kts | 301° |
| 2026-05-07 22:50 | 46.37823 | 22.81310 | 34070 ft | 459 kts | 301° |
| 2026-05-07 22:51 | 46.41520 | 22.73784 | 34063 ft | 459 kts | 301° |
| 2026-05-07 22:51 | 46.45195 | 22.66281 | 34075 ft | 458 kts | 301° |
| 2026-05-07 22:52 | 46.48853 | 22.58713 | 34062 ft | 458 kts | 301° |
| 2026-05-07 22:52 | 46.52533 | 22.51105 | 34063 ft | 458 kts | 301° |
| 2026-05-07 22:53 | 46.56179 | 22.43587 | 34051 ft | 458 kts | 301° |
| 2026-05-07 22:53 | 46.59849 | 22.36016 | 34067 ft | 458 kts | 301° |
| 2026-05-07 22:54 | 46.63515 | 22.28431 | 34037 ft | 459 kts | 301° |
| 2026-05-07 22:54 | 46.67182 | 22.20824 | 34051 ft | 459 kts | 301° |
| 2026-05-07 22:55 | 46.70814 | 22.13267 | 34052 ft | 459 kts | 301° |
| 2026-05-07 22:55 | 46.74468 | 22.05644 | 34067 ft | 458 kts | 301° |
| 2026-05-07 22:56 | 46.78120 | 21.98005 | 34039 ft | 459 kts | 300° |
| 2026-05-07 22:56 | 46.81772 | 21.90343 | 34042 ft | 459 kts | 300° |
| 2026-05-07 22:57 | 46.85421 | 21.82668 | 34044 ft | 459 kts | 300° |
| 2026-05-07 22:57 | 46.89035 | 21.75044 | 34045 ft | 459 kts | 300° |
| 2026-05-07 22:58 | 46.92665 | 21.67368 | 34047 ft | 459 kts | 300° |
| 2026-05-07 22:58 | 46.96263 | 21.59656 | 34044 ft | 458 kts | 300° |
| 2026-05-07 22:59 | 46.99862 | 21.51938 | 34038 ft | 458 kts | 300° |
| 2026-05-07 22:59 | 47.03469 | 21.44228 | 34040 ft | 459 kts | 300° |
| 2026-05-07 23:00 | 47.07087 | 21.36489 | 34044 ft | 460 kts | 299° |
| 2026-05-07 23:00 | 47.10703 | 21.28733 | 34042 ft | 460 kts | 299° |
| 2026-05-07 23:01 | 47.14290 | 21.21022 | 34044 ft | 460 kts | 299° |
| 2026-05-07 23:01 | 47.17908 | 21.13218 | 34044 ft | 460 kts | 299° |
| 2026-05-07 23:02 | 47.21513 | 21.05422 | 34048 ft | 460 kts | 299° |
| 2026-05-07 23:02 | 47.25081 | 20.97683 | 34041 ft | 460 kts | 299° |
| 2026-05-07 23:03 | 47.28669 | 20.89877 | 34038 ft | 460 kts | 298° |
| 2026-05-07 23:03 | 47.32254 | 20.82057 | 34038 ft | 460 kts | 298° |
| 2026-05-07 23:04 | 47.35828 | 20.74237 | 34039 ft | 460 kts | 298° |
| 2026-05-07 23:04 | 47.39403 | 20.66394 | 34036 ft | 460 kts | 298° |
| 2026-05-07 23:05 | 47.42937 | 20.58535 | 34052 ft | 460 kts | 298° |
| 2026-05-07 23:05 | 47.45878 | 20.51986 | 34039 ft | 461 kts | 298° |
| 2026-05-07 23:06 | 47.49439 | 20.44086 | 34033 ft | 461 kts | 298° |
| 2026-05-07 23:06 | 47.52993 | 20.36206 | 34037 ft | 460 kts | 298° |
| 2026-05-07 23:07 | 47.57105 | 20.27060 | 34034 ft | 459 kts | 298° |
| 2026-05-07 23:07 | 47.60045 | 20.20498 | 34032 ft | 459 kts | 298° |
| 2026-05-07 23:08 | 47.63573 | 20.12602 | 34034 ft | 459 kts | 298° |
| 2026-05-07 23:08 | 47.67096 | 20.04699 | 34034 ft | 459 kts | 298° |
| 2026-05-07 23:09 | 47.70611 | 19.96790 | 34037 ft | 459 kts | 298° |
| 2026-05-07 23:09 | 47.74123 | 19.88862 | 34038 ft | 459 kts | 297° |
| 2026-05-07 23:10 | 47.77604 | 19.80982 | 34037 ft | 459 kts | 297° |
| 2026-05-07 23:10 | 47.81106 | 19.73033 | 34056 ft | 460 kts | 297° |
| 2026-05-07 23:11 | 47.84616 | 19.65042 | 34040 ft | 461 kts | 297° |
| 2026-05-07 23:11 | 47.88095 | 19.57026 | 34039 ft | 461 kts | 297° |
| 2026-05-07 23:12 | 47.91574 | 19.48979 | 34045 ft | 461 kts | 297° |
| 2026-05-07 23:12 | 47.95046 | 19.40980 | 34075 ft | 462 kts | 297° |
| 2026-05-07 23:13 | 47.98544 | 19.32920 | 34044 ft | 463 kts | 297° |
| 2026-05-07 23:13 | 48.02041 | 19.24844 | 34046 ft | 463 kts | 297° |
| 2026-05-07 23:14 | 48.05532 | 19.16754 | 34053 ft | 463 kts | 297° |
| 2026-05-07 23:14 | 48.09317 | 19.08896 | 34052 ft | 468 kts | 303° |
| 2026-05-07 23:15 | 48.13522 | 19.01506 | 34056 ft | 469 kts | 305° |
| 2026-05-07 23:15 | 48.17793 | 18.94152 | 34049 ft | 468 kts | 305° |
| 2026-05-07 23:16 | 48.22040 | 18.86731 | 34046 ft | 470 kts | 304° |
| 2026-05-07 23:16 | 48.26281 | 18.79251 | 34044 ft | 470 kts | 304° |
| 2026-05-07 23:17 | 48.30512 | 18.71759 | 34056 ft | 470 kts | 305° |
| 2026-05-07 23:17 | 48.34733 | 18.64265 | 34042 ft | 469 kts | 305° |
| 2026-05-07 23:18 | 48.38946 | 18.56765 | 34045 ft | 469 kts | 305° |
| 2026-05-07 23:18 | 48.43154 | 18.49252 | 34038 ft | 469 kts | 305° |
| 2026-05-07 23:19 | 48.47337 | 18.41765 | 34063 ft | 469 kts | 305° |
| 2026-05-07 23:19 | 48.51542 | 18.34215 | 34038 ft | 470 kts | 306° |
| 2026-05-07 23:20 | 48.55752 | 18.26634 | 34034 ft | 472 kts | 305° |
| 2026-05-07 23:20 | 48.59962 | 18.19033 | 34032 ft | 471 kts | 305° |
| 2026-05-07 23:21 | 48.64142 | 18.11391 | 34026 ft | 471 kts | 305° |
| 2026-05-07 23:21 | 48.68318 | 18.03753 | 34020 ft | 471 kts | 306° |
| 2026-05-07 23:22 | 48.72493 | 17.96138 | 34021 ft | 470 kts | 306° |
| 2026-05-07 23:22 | 48.76661 | 17.88527 | 34022 ft | 469 kts | 306° |
| 2026-05-07 23:23 | 48.80802 | 17.80943 | 34034 ft | 470 kts | 306° |
| 2026-05-07 23:23 | 48.85136 | 17.73463 | 34046 ft | 475 kts | 312° |
| 2026-05-07 23:24 | 48.89995 | 17.66618 | 34036 ft | 477 kts | 315° |
| 2026-05-07 23:24 | 48.94964 | 17.59928 | 34030 ft | 477 kts | 315° |
| 2026-05-07 23:25 | 48.99863 | 17.53245 | 34029 ft | 477 kts | 314° |
| 2026-05-07 23:25 | 49.04779 | 17.46455 | 34031 ft | 477 kts | 314° |
| 2026-05-07 23:26 | 49.09688 | 17.39639 | 34031 ft | 477 kts | 314° |
| 2026-05-07 23:26 | 49.14601 | 17.32797 | 34033 ft | 478 kts | 314° |
| 2026-05-07 23:27 | 49.21948 | 17.22537 | 34033 ft | 479 kts | 314° |
| 2026-05-07 23:27 | 49.26857 | 17.15658 | 34030 ft | 478 kts | 314° |
| 2026-05-07 23:28 | 49.31764 | 17.08762 | 34043 ft | 478 kts | 315° |
| 2026-05-07 23:28 | 49.36652 | 17.01874 | 34031 ft | 476 kts | 314° |
| 2026-05-07 23:29 | 49.41524 | 16.94987 | 34039 ft | 477 kts | 314° |
| 2026-05-07 23:29 | 49.46423 | 16.88021 | 34041 ft | 481 kts | 314° |
| 2026-05-07 23:30 | 49.51312 | 16.81008 | 34047 ft | 480 kts | 314° |
| 2026-05-07 23:30 | 49.56168 | 16.74061 | 34038 ft | 476 kts | 314° |
| 2026-05-07 23:31 | 49.60999 | 16.67153 | 34047 ft | 473 kts | 314° |
| 2026-05-07 23:31 | 49.65821 | 16.60240 | 34066 ft | 473 kts | 314° |
| 2026-05-07 23:32 | 49.70650 | 16.53297 | 34052 ft | 476 kts | 314° |
| 2026-05-07 23:32 | 49.75512 | 16.46284 | 34070 ft | 479 kts | 314° |
| 2026-05-07 23:33 | 49.80356 | 16.39283 | 34053 ft | 473 kts | 314° |
| 2026-05-07 23:33 | 49.85152 | 16.32331 | 34053 ft | 471 kts | 314° |
| 2026-05-07 23:34 | 49.89938 | 16.25369 | 34055 ft | 472 kts | 314° |
| 2026-05-07 23:34 | 49.94730 | 16.18379 | 34052 ft | 472 kts | 314° |
| 2026-05-07 23:35 | 49.99509 | 16.11389 | 34066 ft | 472 kts | 314° |
| 2026-05-07 23:35 | 50.04267 | 16.04412 | 34049 ft | 468 kts | 314° |
| 2026-05-07 23:36 | 50.08952 | 15.97470 | 34051 ft | 467 kts | 313° |
| 2026-05-07 23:36 | 50.13655 | 15.90475 | 34069 ft | 468 kts | 313° |
| 2026-05-07 23:37 | 50.18375 | 15.83476 | 34067 ft | 468 kts | 314° |
| 2026-05-07 23:37 | 50.23095 | 15.76474 | 34072 ft | 467 kts | 314° |
| 2026-05-07 23:38 | 50.27780 | 15.69506 | 34063 ft | 464 kts | 314° |
| 2026-05-07 23:38 | 50.32454 | 15.62530 | 34059 ft | 465 kts | 314° |
| 2026-05-07 23:39 | 50.37141 | 15.55515 | 34054 ft | 466 kts | 314° |
| 2026-05-07 23:39 | 50.41822 | 15.48491 | 34059 ft | 466 kts | 314° |
| 2026-05-07 23:40 | 50.46466 | 15.41502 | 34057 ft | 465 kts | 314° |
| 2026-05-07 23:40 | 50.51090 | 15.34523 | 34062 ft | 463 kts | 314° |
| 2026-05-07 23:41 | 50.55736 | 15.27489 | 34061 ft | 463 kts | 314° |
| 2026-05-07 23:41 | 50.60381 | 15.20436 | 34073 ft | 465 kts | 314° |
| 2026-05-07 23:42 | 50.65040 | 15.13341 | 34069 ft | 466 kts | 314° |
| 2026-05-07 23:42 | 50.69680 | 15.06191 | 34086 ft | 465 kts | 314° |
| 2026-05-07 23:43 | 50.74305 | 14.99059 | 34080 ft | 464 kts | 314° |
| 2026-05-07 23:43 | 50.78929 | 14.91944 | 34089 ft | 464 kts | 314° |
| 2026-05-07 23:44 | 50.83530 | 14.84857 | 34091 ft | 464 kts | 314° |
| 2026-05-07 23:44 | 50.88159 | 14.77707 | 34099 ft | 465 kts | 314° |
| 2026-05-07 23:45 | 50.92696 | 14.70378 | 34096 ft | 465 kts | 308° |
| 2026-05-07 23:45 | 50.94507 | 14.66170 | 34092 ft | 462 kts | 297° |
| 2026-05-07 23:45 | 50.95770 | 14.61509 | 34104 ft | 460 kts | 287° |
| 2026-05-07 23:46 | 50.97397 | 14.51690 | 34102 ft | 460 kts | 282° |
| 2026-05-07 23:46 | 50.98911 | 14.41821 | 34105 ft | 460 kts | 283° |
| 2026-05-07 23:47 | 51.00564 | 14.32007 | 34107 ft | 460 kts | 284° |
| 2026-05-07 23:47 | 51.02280 | 14.22209 | 34108 ft | 460 kts | 285° |
| 2026-05-07 23:48 | 51.03993 | 14.12438 | 34109 ft | 459 kts | 285° |
| 2026-05-07 23:48 | 51.05698 | 14.02641 | 34105 ft | 459 kts | 285° |
| 2026-05-07 23:49 | 51.06545 | 13.97746 | 33968 ft | 457 kts | 285° |
| 2026-05-07 23:49 | 51.07370 | 13.92967 | 33574 ft | 441 kts | 285° |
| 2026-05-07 23:49 | 51.08172 | 13.88301 | 33122 ft | 434 kts | 285° |
| 2026-05-07 23:49 | 51.08963 | 13.83690 | 32527 ft | 430 kts | 285° |
| 2026-05-07 23:50 | 51.09747 | 13.79105 | 31989 ft | 428 kts | 286° |
| 2026-05-07 23:50 | 51.10518 | 13.74589 | 31438 ft | 426 kts | 286° |
| 2026-05-07 23:50 | 51.11291 | 13.70049 | 30912 ft | 425 kts | 286° |
| 2026-05-07 23:50 | 51.12060 | 13.65514 | 30359 ft | 424 kts | 287° |
| 2026-05-07 23:51 | 51.12825 | 13.60999 | 29772 ft | 422 kts | 287° |
| 2026-05-07 23:51 | 51.13589 | 13.56479 | 29203 ft | 422 kts | 287° |
| 2026-05-07 23:51 | 51.14351 | 13.51958 | 28656 ft | 425 kts | 287° |
| 2026-05-07 23:51 | 51.15120 | 13.47388 | 28105 ft | 428 kts | 286° |
| 2026-05-07 23:52 | 51.15890 | 13.42797 | 27565 ft | 430 kts | 286° |
| 2026-05-07 23:52 | 51.16659 | 13.38193 | 27020 ft | 431 kts | 285° |
| 2026-05-07 23:52 | 51.17134 | 13.35107 | 26662 ft | 434 kts | 282° |
| 2026-05-07 23:52 | 51.17501 | 13.30334 | 26131 ft | 435 kts | 274° |
| 2026-05-07 23:53 | 51.17568 | 13.25519 | 25565 ft | 433 kts | 271° |
| 2026-05-07 23:53 | 51.17516 | 13.20735 | 25006 ft | 430 kts | 270° |
| 2026-05-07 23:53 | 51.17438 | 13.15977 | 24446 ft | 426 kts | 270° |
| 2026-05-07 23:53 | 51.17369 | 13.11269 | 23894 ft | 423 kts | 270° |
| 2026-05-07 23:54 | 51.17318 | 13.06593 | 23281 ft | 420 kts | 270° |
| 2026-05-07 23:54 | 51.17281 | 13.01968 | 22692 ft | 417 kts | 271° |
| 2026-05-07 23:54 | 51.17251 | 12.97355 | 22135 ft | 414 kts | 271° |
| 2026-05-07 23:54 | 51.17225 | 12.92790 | 21592 ft | 411 kts | 271° |
| 2026-05-07 23:55 | 51.17200 | 12.88328 | 21057 ft | 408 kts | 270° |
| 2026-05-07 23:55 | 51.17251 | 12.83892 | 20527 ft | 403 kts | 277° |
| 2026-05-07 23:55 | 51.17840 | 12.79540 | 20007 ft | 401 kts | 288° |
| 2026-05-07 23:55 | 51.18801 | 12.75381 | 19469 ft | 399 kts | 292° |
| 2026-05-07 23:56 | 51.19891 | 12.71328 | 18950 ft | 397 kts | 294° |
| 2026-05-07 23:56 | 51.21004 | 12.67314 | 18421 ft | 395 kts | 294° |
| 2026-05-07 23:56 | 51.22105 | 12.63312 | 17848 ft | 392 kts | 294° |
| 2026-05-07 23:56 | 51.23179 | 12.59328 | 17293 ft | 389 kts | 293° |
| 2026-05-07 23:57 | 51.24230 | 12.55367 | 16770 ft | 387 kts | 293° |
| 2026-05-07 23:57 | 51.25225 | 12.51397 | 16235 ft | 383 kts | 288° |
| 2026-05-07 23:57 | 51.25694 | 12.47233 | 15735 ft | 382 kts | 273° |
| 2026-05-07 23:57 | 51.25662 | 12.43002 | 15246 ft | 380 kts | 267° |
| 2026-05-07 23:58 | 51.25450 | 12.38806 | 14749 ft | 378 kts | 265° |
| 2026-05-07 23:58 | 51.25197 | 12.34652 | 14264 ft | 375 kts | 265° |
| 2026-05-07 23:58 | 51.24951 | 12.30516 | 13759 ft | 373 kts | 265° |
| 2026-05-07 23:58 | 51.24867 | 12.26404 | 13240 ft | 369 kts | 275° |
| 2026-05-07 23:59 | 51.25245 | 12.22368 | 12760 ft | 367 kts | 282° |
| 2026-05-07 23:59 | 51.25826 | 12.18428 | 12283 ft | 364 kts | 285° |
| 2026-05-07 23:59 | 51.26470 | 12.14527 | 11822 ft | 362 kts | 285° |
| 2026-05-07 23:59 | 51.27120 | 12.10660 | 11413 ft | 359 kts | 285° |
| 2026-05-08 00:00 | 51.27758 | 12.06821 | 11167 ft | 357 kts | 285° |
| 2026-05-08 00:00 | 51.28303 | 12.03119 | 11052 ft | 335 kts | 278° |
| 2026-05-08 00:00 | 51.28408 | 11.99483 | 10923 ft | 314 kts | 270° |
| 2026-05-08 00:00 | 51.28292 | 11.96098 | 10818 ft | 295 kts | 267° |
| 2026-05-08 00:01 | 51.28128 | 11.92921 | 10717 ft | 282 kts | 267° |
| 2026-05-08 00:01 | 51.27961 | 11.89818 | 10570 ft | 285 kts | 267° |
| 2026-05-08 00:01 | 51.27793 | 11.86662 | 10191 ft | 285 kts | 267° |
| 2026-05-08 00:01 | 51.27627 | 11.83501 | 9694 ft | 284 kts | 267° |
| 2026-05-08 00:02 | 51.27465 | 11.80369 | 9221 ft | 281 kts | 267° |
| 2026-05-08 00:02 | 51.27304 | 11.77284 | 8790 ft | 277 kts | 267° |
| 2026-05-08 00:02 | 51.27146 | 11.74225 | 8383 ft | 276 kts | 266° |
| 2026-05-08 00:02 | 51.26990 | 11.71169 | 7975 ft | 276 kts | 266° |
| 2026-05-08 00:03 | 51.26857 | 11.68113 | 7579 ft | 275 kts | 268° |
| 2026-05-08 00:03 | 51.27010 | 11.65092 | 6992 ft | 276 kts | 289° |
| 2026-05-08 00:03 | 51.27967 | 11.62458 | 6398 ft | 276 kts | 315° |
| 2026-05-08 00:03 | 51.29551 | 11.60793 | 5764 ft | 275 kts | 342° |
| 2026-05-08 00:04 | 51.31424 | 11.60452 | 5224 ft | 270 kts | 9° |
| 2026-05-08 00:04 | 51.33207 | 11.61179 | 4857 ft | 261 kts | 19° |
| 2026-05-08 00:04 | 51.34927 | 11.62032 | 4463 ft | 256 kts | 16° |
| 2026-05-08 00:04 | 51.36590 | 11.62879 | 4206 ft | 245 kts | 24° |
| 2026-05-08 00:05 | 51.38016 | 11.64178 | 4046 ft | 231 kts | 38° |
| 2026-05-08 00:05 | 51.39101 | 11.65946 | 3955 ft | 221 kts | 61° |
| 2026-05-08 00:05 | 51.39451 | 11.68310 | 4015 ft | 221 kts | 89° |
| 2026-05-08 00:05 | 51.39414 | 11.70813 | 4013 ft | 224 kts | 91° |
| 2026-05-08 00:06 | 51.39371 | 11.73304 | 3982 ft | 225 kts | 90° |
| 2026-05-08 00:06 | 51.39357 | 11.75791 | 4013 ft | 220 kts | 89° |
| 2026-05-08 00:06 | 51.39365 | 11.78088 | 3946 ft | 192 kts | 88° |
| 2026-05-08 00:06 | 51.39391 | 11.80147 | 3985 ft | 185 kts | 88° |
| 2026-05-08 00:07 | 51.39430 | 11.82213 | 3714 ft | 183 kts | 87° |
| 2026-05-08 00:07 | 51.39488 | 11.84224 | 3505 ft | 182 kts | 85° |
| 2026-05-08 00:07 | 51.39588 | 11.86240 | 3283 ft | 181 kts | 85° |
| 2026-05-08 00:07 | 51.39685 | 11.88240 | 3065 ft | 180 kts | 85° |
| 2026-05-08 00:08 | 51.39781 | 11.90229 | 2983 ft | 178 kts | 85° |
| 2026-05-08 00:08 | 51.39874 | 11.92180 | 2960 ft | 168 kts | 85° |
| 2026-05-08 00:08 | 51.39958 | 11.93981 | 2966 ft | 160 kts | 85° |
| 2026-05-08 00:08 | 51.40041 | 11.95761 | 2988 ft | 161 kts | 85° |
| 2026-05-08 00:09 | 51.40124 | 11.97548 | 2975 ft | 160 kts | 85° |
| 2026-05-08 00:09 | 51.40206 | 11.99340 | 2979 ft | 161 kts | 85° |
| 2026-05-08 00:09 | 51.40288 | 12.01135 | 2919 ft | 163 kts | 85° |
| 2026-05-08 00:09 | 51.40370 | 12.02925 | 2659 ft | 160 kts | 85° |
| 2026-05-08 00:10 | 51.40450 | 12.04679 | 2462 ft | 160 kts | 85° |
| 2026-05-08 00:10 | 51.40531 | 12.06464 | 2232 ft | 161 kts | 85° |
| 2026-05-08 00:10 | 51.40611 | 12.08245 | 2019 ft | 160 kts | 85° |
| 2026-05-08 00:10 | 51.40691 | 12.10022 | 1791 ft | 160 kts | 85° |
| 2026-05-08 00:11 | 51.40771 | 12.11793 | 1556 ft | 159 kts | 85° |
| 2026-05-08 00:11 | 51.40850 | 12.13545 | 1313 ft | 161 kts | 85° |
| 2026-05-08 00:11 | 51.40928 | 12.15316 | 1014 ft | 159 kts | 85° |
| 2026-05-08 00:11 | 51.41002 | 12.17086 | 755 ft | 159 kts | 85° |
| 2026-05-08 00:12 | 51.41084 | 12.18848 | 533 ft | 158 kts | 84° |
| 2026-05-08 00:12 | 51.41164 | 12.20578 | 449 ft | 147 kts | 85° |
| 2026-05-08 00:12 | 51.41231 | 12.21946 | 464 ft | 86 kts | 85° |
| 2026-05-08 00:12 | 51.41264 | 12.22685 | 472 ft | 52 kts | 85° |
| 2026-05-08 00:13 | 51.41286 | 12.23149 | 471 ft | 38 kts | 85° |
| 2026-05-08 00:13 | 51.41305 | 12.23486 | 478 ft | 17 kts | 86° |
| 2026-05-08 00:13 | 51.41312 | 12.23654 | 480 ft | 14 kts | 86° |
| 2026-05-08 00:13 | 51.41313 | 12.23795 | 481 ft | 12 kts | 91° |
| 2026-05-08 00:14 | 51.41305 | 12.23915 | 480 ft | 10 kts | 98° |
| 2026-05-08 00:14 | 51.41286 | 12.24018 | 474 ft | 9 kts | 110° |
| 2026-05-08 00:14 | 51.41264 | 12.24098 | 479 ft | 7 kts | 114° |
| 2026-05-08 00:14 | 51.41231 | 12.24214 | 471 ft | 18 kts | 114° |
| 2026-05-08 00:15 | 51.41162 | 12.24390 | 472 ft | 17 kts | 153° |
| 2026-05-08 00:15 | 51.41083 | 12.24318 | 471 ft | 13 kts | 258° |
| 2026-05-08 00:15 | 51.41049 | 12.24232 | 472 ft | 7 kts | 201° |
| 2026-05-08 00:15 | 51.41002 | 12.24227 | 470 ft | 7 kts | 179° |
| 2026-05-08 00:16 | 51.40952 | 12.24227 | 471 ft | 7 kts | 180° |
| 2026-05-08 00:16 | 51.40899 | 12.24239 | 469 ft | 7 kts | 155° |
| 2026-05-08 00:16 | 51.40883 | 12.24292 | 466 ft | 4 kts | 89° |
| 2026-05-08 00:16 | 51.40884 | 12.24330 | 469 ft | 3 kts | 87° |
| 2026-05-08 00:17 | 51.40884 | 12.24332 | 469 ft | 0 kts | 87° |